sensor_id;sensor_type;location;lat;lon;timestamp;pressure;altitude;pressure_sealevel;temperature;humidity
61394;BME280;48555;50.952;-0.120;2024-02-14T00:01:54;100709.34;;;13.64;96.38
61394;BME280;48555;50.952;-0.120;2024-02-14T00:04:20;100699.09;;;13.61;96.60
61394;BME280;48555;50.952;-0.120;2024-02-14T00:06:46;100715.56;;;13.63;96.58
61394;BME280;48555;50.952;-0.120;2024-02-14T00:09:12;100701.84;;;13.59;96.93
61394;BME280;48555;50.952;-0.120;2024-02-14T00:11:37;100717.75;;;13.58;96.86
61394;BME280;48555;50.952;-0.120;2024-02-14T00:14:03;100717.38;;;13.62;96.59
61394;BME280;48555;50.952;-0.120;2024-02-14T00:16:29;100704.50;;;13.59;96.76
61394;BME280;48555;50.952;-0.120;2024-02-14T00:18:57;100713.47;;;13.57;97.33
61394;BME280;48555;50.952;-0.120;2024-02-14T00:21:23;100709.75;;;13.59;97.26
61394;BME280;48555;50.952;-0.120;2024-02-14T00:23:49;100716.91;;;13.57;97.58
61394;BME280;48555;50.952;-0.120;2024-02-14T00:26:15;100713.06;;;13.61;97.58
61394;BME280;48555;50.952;-0.120;2024-02-14T00:28:40;100710.41;;;13.61;97.71
61394;BME280;48555;50.952;-0.120;2024-02-14T00:31:05;100717.22;;;13.64;97.62
61394;BME280;48555;50.952;-0.120;2024-02-14T00:33:31;100714.47;;;13.66;97.78
61394;BME280;48555;50.952;-0.120;2024-02-14T00:35:56;100704.78;;;13.66;98.05
61394;BME280;48555;50.952;-0.120;2024-02-14T00:38:22;100720.66;;;13.64;98.55
61394;BME280;48555;50.952;-0.120;2024-02-14T00:40:47;100707.69;;;13.63;98.63
61394;BME280;48555;50.952;-0.120;2024-02-14T00:43:12;100707.41;;;13.66;98.54
61394;BME280;48555;50.952;-0.120;2024-02-14T00:45:39;100715.16;;;13.68;98.63
61394;BME280;48555;50.952;-0.120;2024-02-14T00:48:04;100720.41;;;13.68;98.34
61394;BME280;48555;50.952;-0.120;2024-02-14T00:50:30;100725.53;;;13.69;98.54
61394;BME280;48555;50.952;-0.120;2024-02-14T00:52:55;100712.53;;;13.68;98.23
61394;BME280;48555;50.952;-0.120;2024-02-14T00:55:21;100722.34;;;13.66;98.58
61394;BME280;48555;50.952;-0.120;2024-02-14T00:57:46;100724.16;;;13.65;99.05
61394;BME280;48555;50.952;-0.120;2024-02-14T01:00:11;100718.63;;;13.68;98.58
61394;BME280;48555;50.952;-0.120;2024-02-14T01:02:37;100716.84;;;13.69;98.68
61394;BME280;48555;50.952;-0.120;2024-02-14T01:05:02;100706.19;;;13.70;98.62
61394;BME280;48555;50.952;-0.120;2024-02-14T01:07:29;100709.91;;;13.68;98.50
61394;BME280;48555;50.952;-0.120;2024-02-14T01:09:54;100715.75;;;13.71;98.36
61394;BME280;48555;50.952;-0.120;2024-02-14T01:12:20;100715.59;;;13.73;98.25
61394;BME280;48555;50.952;-0.120;2024-02-14T01:14:45;100713.22;;;13.70;98.46
61394;BME280;48555;50.952;-0.120;2024-02-14T01:17:10;100715.47;;;13.74;98.71
61394;BME280;48555;50.952;-0.120;2024-02-14T01:19:36;100717.28;;;13.74;98.33
61394;BME280;48555;50.952;-0.120;2024-02-14T01:22:01;100728.88;;;13.71;98.76
61394;BME280;48555;50.952;-0.120;2024-02-14T01:24:27;100722.34;;;13.66;99.20
61394;BME280;48555;50.952;-0.120;2024-02-14T01:26:54;100735.78;;;13.72;99.08
61394;BME280;48555;50.952;-0.120;2024-02-14T01:29:20;100731.38;;;13.73;98.75
61394;BME280;48555;50.952;-0.120;2024-02-14T01:31:45;100727.34;;;13.69;98.85
61394;BME280;48555;50.952;-0.120;2024-02-14T01:34:11;100742.72;;;13.73;98.87
61394;BME280;48555;50.952;-0.120;2024-02-14T01:36:36;100755.03;;;13.73;98.80
61394;BME280;48555;50.952;-0.120;2024-02-14T01:39:04;100745.03;;;13.67;98.78
61394;BME280;48555;50.952;-0.120;2024-02-14T01:41:32;100749.19;;;13.69;98.64
61394;BME280;48555;50.952;-0.120;2024-02-14T01:43:58;100746.19;;;13.74;98.47
61394;BME280;48555;50.952;-0.120;2024-02-14T01:46:24;100754.06;;;13.74;98.21
61394;BME280;48555;50.952;-0.120;2024-02-14T01:48:50;100761.38;;;13.70;98.34
61394;BME280;48555;50.952;-0.120;2024-02-14T01:51:17;100752.47;;;13.61;98.85
61394;BME280;48555;50.952;-0.120;2024-02-14T01:53:45;100734.03;;;13.52;99.07
61394;BME280;48555;50.952;-0.120;2024-02-14T01:56:12;100744.47;;;13.63;98.98
61394;BME280;48555;50.952;-0.120;2024-02-14T01:58:37;100757.72;;;13.61;98.94
61394;BME280;48555;50.952;-0.120;2024-02-14T02:01:04;100737.63;;;13.51;98.92
61394;BME280;48555;50.952;-0.120;2024-02-14T02:03:29;100757.09;;;13.69;98.53
61394;BME280;48555;50.952;-0.120;2024-02-14T02:05:55;100746.25;;;13.62;99.07
61394;BME280;48555;50.952;-0.120;2024-02-14T02:08:21;100755.94;;;13.62;99.29
61394;BME280;48555;50.952;-0.120;2024-02-14T02:10:47;100752.47;;;13.61;99.14
61394;BME280;48555;50.952;-0.120;2024-02-14T02:13:12;100758.44;;;13.63;99.22
61394;BME280;48555;50.952;-0.120;2024-02-14T02:15:39;100753.75;;;13.67;98.77
61394;BME280;48555;50.952;-0.120;2024-02-14T02:18:05;100757.47;;;13.64;99.06
61394;BME280;48555;50.952;-0.120;2024-02-14T02:20:31;100731.69;;;13.58;98.85
61394;BME280;48555;50.952;-0.120;2024-02-14T02:22:58;100750.44;;;13.65;98.73
61394;BME280;48555;50.952;-0.120;2024-02-14T02:25:25;100743.38;;;13.66;98.95
61394;BME280;48555;50.952;-0.120;2024-02-14T02:27:54;100756.50;;;13.66;99.00
61394;BME280;48555;50.952;-0.120;2024-02-14T02:30:23;100754.44;;;13.69;98.68
61394;BME280;48555;50.952;-0.120;2024-02-14T02:32:49;100757.09;;;13.69;98.56
61394;BME280;48555;50.952;-0.120;2024-02-14T02:35:16;100755.44;;;13.68;98.97
61394;BME280;48555;50.952;-0.120;2024-02-14T02:37:41;100766.34;;;13.73;98.84
61394;BME280;48555;50.952;-0.120;2024-02-14T02:40:09;100767.47;;;13.71;98.95
61394;BME280;48555;50.952;-0.120;2024-02-14T02:42:35;100757.19;;;13.68;98.94
61394;BME280;48555;50.952;-0.120;2024-02-14T02:45:01;100754.53;;;13.58;99.45
61394;BME280;48555;50.952;-0.120;2024-02-14T02:47:31;100753.63;;;13.69;99.02
61394;BME280;48555;50.952;-0.120;2024-02-14T02:49:57;100752.59;;;13.60;98.93
61394;BME280;48555;50.952;-0.120;2024-02-14T02:52:26;100757.09;;;13.69;98.79
61394;BME280;48555;50.952;-0.120;2024-02-14T02:54:53;100759.00;;;13.67;98.89
61394;BME280;48555;50.952;-0.120;2024-02-14T02:57:18;100757.91;;;13.70;98.67
61394;BME280;48555;50.952;-0.120;2024-02-14T02:59:44;100763.31;;;13.68;98.74
61394;BME280;48555;50.952;-0.120;2024-02-14T03:02:11;100759.97;;;13.66;98.89
61394;BME280;48555;50.952;-0.120;2024-02-14T03:04:38;100767.97;;;13.64;98.71
61394;BME280;48555;50.952;-0.120;2024-02-14T03:07:03;100756.38;;;13.67;98.74
61394;BME280;48555;50.952;-0.120;2024-02-14T03:09:32;100764.25;;;13.67;98.48
61394;BME280;48555;50.952;-0.120;2024-02-14T03:11:57;100754.44;;;13.69;98.69
61394;BME280;48555;50.952;-0.120;2024-02-14T03:14:23;100755.44;;;13.68;98.49
61394;BME280;48555;50.952;-0.120;2024-02-14T03:16:48;100755.53;;;13.67;98.77
61394;BME280;48555;50.952;-0.120;2024-02-14T03:19:14;100750.53;;;13.63;98.67
61394;BME280;48555;50.952;-0.120;2024-02-14T03:21:39;100751.94;;;13.68;98.41
61394;BME280;48555;50.952;-0.120;2024-02-14T03:24:05;100736.84;;;13.60;98.11
61394;BME280;48555;50.952;-0.120;2024-02-14T03:26:31;100756.97;;;13.71;98.19
61394;BME280;48555;50.952;-0.120;2024-02-14T03:28:59;100756.50;;;13.66;98.25
61394;BME280;48555;50.952;-0.120;2024-02-14T03:31:25;100756.38;;;13.67;98.22
61394;BME280;48555;50.952;-0.120;2024-02-14T03:33:51;100754.56;;;13.68;98.20
61394;BME280;48555;50.952;-0.120;2024-02-14T03:36:16;100754.16;;;13.62;98.55
61394;BME280;48555;50.952;-0.120;2024-02-14T03:38:42;100757.19;;;13.68;98.24
61394;BME280;48555;50.952;-0.120;2024-02-14T03:41:07;100750.16;;;13.68;98.22
61394;BME280;48555;50.952;-0.120;2024-02-14T03:43:33;100746.84;;;13.66;97.86
61394;BME280;48555;50.952;-0.120;2024-02-14T03:45:58;100755.69;;;13.65;98.15
61394;BME280;48555;50.952;-0.120;2024-02-14T03:48:24;100743.91;;;13.59;98.02
61394;BME280;48555;50.952;-0.120;2024-02-14T03:50:49;100757.03;;;13.59;98.18
61394;BME280;48555;50.952;-0.120;2024-02-14T03:53:14;100745.81;;;13.57;98.19
61394;BME280;48555;50.952;-0.120;2024-02-14T03:55:40;100750.09;;;13.58;98.22
61394;BME280;48555;50.952;-0.120;2024-02-14T03:58:06;100759.78;;;13.58;98.34
61394;BME280;48555;50.952;-0.120;2024-02-14T04:00:33;100764.19;;;13.57;98.41
61394;BME280;48555;50.952;-0.120;2024-02-14T04:03:00;100757.34;;;13.45;98.58
61394;BME280;48555;50.952;-0.120;2024-02-14T04:05:27;100769.56;;;13.56;98.79
61394;BME280;48555;50.952;-0.120;2024-02-14T04:07:54;100769.72;;;13.54;98.60
61394;BME280;48555;50.952;-0.120;2024-02-14T04:10:20;100766.84;;;13.57;98.67
61394;BME280;48555;50.952;-0.120;2024-02-14T04:12:46;100764.09;;;13.59;98.56
61394;BME280;48555;50.952;-0.120;2024-02-14T04:15:11;100774.59;;;13.59;98.60
61394;BME280;48555;50.952;-0.120;2024-02-14T04:17:37;100763.06;;;13.50;98.91
61394;BME280;48555;50.952;-0.120;2024-02-14T04:20:03;100758.91;;;13.48;99.33
61394;BME280;48555;50.952;-0.120;2024-02-14T04:22:29;100766.00;;;13.57;98.89
61394;BME280;48555;50.952;-0.120;2024-02-14T04:24:54;100750.94;;;13.59;98.90
61394;BME280;48555;50.952;-0.120;2024-02-14T04:27:19;100758.69;;;13.60;98.81
61394;BME280;48555;50.952;-0.120;2024-02-14T04:29:45;100762.28;;;13.59;98.60
61394;BME280;48555;50.952;-0.120;2024-02-14T04:32:11;100748.81;;;13.53;98.86
61394;BME280;48555;50.952;-0.120;2024-02-14T04:34:38;100768.22;;;13.61;98.81
61394;BME280;48555;50.952;-0.120;2024-02-14T04:37:05;100759.91;;;13.56;98.78
61394;BME280;48555;50.952;-0.120;2024-02-14T04:39:35;100749.41;;;13.56;98.75
61394;BME280;48555;50.952;-0.120;2024-02-14T04:42:01;100747.72;;;13.55;98.77
61394;BME280;48555;50.952;-0.120;2024-02-14T04:44:30;100751.91;;;13.58;99.05
61394;BME280;48555;50.952;-0.120;2024-02-14T04:46:57;100747.72;;;13.55;99.06
61394;BME280;48555;50.952;-0.120;2024-02-14T04:49:24;100755.88;;;13.52;99.30
61394;BME280;48555;50.952;-0.120;2024-02-14T04:51:51;100762.81;;;13.53;99.21
61394;BME280;48555;50.952;-0.120;2024-02-14T04:54:16;100756.56;;;13.54;99.07
61394;BME280;48555;50.952;-0.120;2024-02-14T04:56:42;100760.50;;;13.60;98.98
61394;BME280;48555;50.952;-0.120;2024-02-14T04:59:08;100756.56;;;13.54;99.36
61394;BME280;48555;50.952;-0.120;2024-02-14T05:01:34;100757.66;;;13.52;99.41
61394;BME280;48555;50.952;-0.120;2024-02-14T05:03:59;100760.84;;;13.55;99.59
61394;BME280;48555;50.952;-0.120;2024-02-14T05:06:25;100764.31;;;13.56;99.13
61394;BME280;48555;50.952;-0.120;2024-02-14T05:08:50;100760.19;;;13.53;99.51
61394;BME280;48555;50.952;-0.120;2024-02-14T05:11:17;100764.78;;;13.61;99.31
61394;BME280;48555;50.952;-0.120;2024-02-14T05:13:42;100765.34;;;13.64;99.27
61394;BME280;48555;50.952;-0.120;2024-02-14T05:16:08;100761.06;;;13.63;99.02
61394;BME280;48555;50.952;-0.120;2024-02-14T05:18:36;100756.06;;;13.60;99.03
61394;BME280;48555;50.952;-0.120;2024-02-14T05:21:05;100764.78;;;13.61;99.46
61394;BME280;48555;50.952;-0.120;2024-02-14T05:23:31;100759.41;;;13.62;99.44
61394;BME280;48555;50.952;-0.120;2024-02-14T05:25:56;100770.84;;;13.61;99.47
61394;BME280;48555;50.952;-0.120;2024-02-14T05:28:21;100757.03;;;13.59;99.77
61394;BME280;48555;50.952;-0.120;2024-02-14T05:30:48;100761.19;;;13.62;99.81
61394;BME280;48555;50.952;-0.120;2024-02-14T05:33:13;100754.97;;;13.63;99.72
61394;BME280;48555;50.952;-0.120;2024-02-14T05:35:38;100759.97;;;13.66;100.00
61394;BME280;48555;50.952;-0.120;2024-02-14T05:38:04;100765.06;;;13.68;99.85
61394;BME280;48555;50.952;-0.120;2024-02-14T05:40:33;100770.34;;;13.68;99.90
61394;BME280;48555;50.952;-0.120;2024-02-14T05:42:58;100764.13;;;13.69;99.72
61394;BME280;48555;50.952;-0.120;2024-02-14T05:45:24;100772.03;;;13.69;100.00
61394;BME280;48555;50.952;-0.120;2024-02-14T05:47:49;100770.47;;;13.66;100.00
61394;BME280;48555;50.952;-0.120;2024-02-14T05:50:14;100767.72;;;13.68;100.00
61394;BME280;48555;50.952;-0.120;2024-02-14T05:52:40;100756.25;;;13.69;100.00
61394;BME280;48555;50.952;-0.120;2024-02-14T05:55:05;100756.81;;;13.72;100.00
61394;BME280;48555;50.952;-0.120;2024-02-14T05:57:31;100755.16;;;13.71;100.00
61394;BME280;48555;50.952;-0.120;2024-02-14T05:59:56;100748.69;;;13.75;99.93
61394;BME280;48555;50.952;-0.120;2024-02-14T06:02:22;100752.66;;;13.70;100.00
61394;BME280;48555;50.952;-0.120;2024-02-14T06:04:47;100751.81;;;13.69;100.00
61394;BME280;48555;50.952;-0.120;2024-02-14T06:07:13;100750.75;;;13.72;100.00
61394;BME280;48555;50.952;-0.120;2024-02-14T06:09:38;100763.88;;;13.72;100.00
61394;BME280;48555;50.952;-0.120;2024-02-14T06:12:04;100761.25;;;13.72;100.00
61394;BME280;48555;50.952;-0.120;2024-02-14T06:14:29;100764.59;;;13.74;100.00
61394;BME280;48555;50.952;-0.120;2024-02-14T06:16:56;100767.22;;;13.74;100.00
61394;BME280;48555;50.952;-0.120;2024-02-14T06:19:22;100760.16;;;13.74;100.00
61394;BME280;48555;50.952;-0.120;2024-02-14T06:21:48;100754.19;;;13.72;100.00
61394;BME280;48555;50.952;-0.120;2024-02-14T06:24:13;100747.41;;;13.70;100.00
61394;BME280;48555;50.952;-0.120;2024-02-14T06:26:39;100751.44;;;13.74;100.00
61394;BME280;48555;50.952;-0.120;2024-02-14T06:29:04;100764.00;;;13.70;100.00
61394;BME280;48555;50.952;-0.120;2024-02-14T06:31:29;100771.25;;;13.78;100.00
61394;BME280;48555;50.952;-0.120;2024-02-14T06:33:55;100762.53;;;13.77;100.00
61394;BME280;48555;50.952;-0.120;2024-02-14T06:36:20;100775.38;;;13.71;100.00
61394;BME280;48555;50.952;-0.120;2024-02-14T06:38:45;100758.63;;;13.72;100.00
61394;BME280;48555;50.952;-0.120;2024-02-14T06:41:11;100768.72;;;13.76;100.00
61394;BME280;48555;50.952;-0.120;2024-02-14T06:43:37;100766.69;;;13.80;100.00
61394;BME280;48555;50.952;-0.120;2024-02-14T06:46:07;100762.13;;;13.82;100.00
61394;BME280;48555;50.952;-0.120;2024-02-14T06:48:32;100768.63;;;13.78;100.00
61394;BME280;48555;50.952;-0.120;2024-02-14T06:50:59;100776.22;;;13.81;100.00
61394;BME280;48555;50.952;-0.120;2024-02-14T06:53:24;100762.34;;;13.69;100.00
61394;BME280;48555;50.952;-0.120;2024-02-14T06:55:50;100776.19;;;13.71;100.00
61394;BME280;48555;50.952;-0.120;2024-02-14T06:58:15;100784.13;;;13.81;100.00
61394;BME280;48555;50.952;-0.120;2024-02-14T07:00:40;100799.19;;;13.79;100.00
61394;BME280;48555;50.952;-0.120;2024-02-14T07:03:06;100787.97;;;13.77;100.00
61394;BME280;48555;50.952;-0.120;2024-02-14T07:05:31;100787.53;;;13.72;100.00
61394;BME280;48555;50.952;-0.120;2024-02-14T07:07:56;100785.63;;;13.74;100.00
61394;BME280;48555;50.952;-0.120;2024-02-14T07:10:22;100792.63;;;13.73;100.00
61394;BME280;48555;50.952;-0.120;2024-02-14T07:12:47;100803.66;;;13.67;100.00
61394;BME280;48555;50.952;-0.120;2024-02-14T07:15:13;100803.16;;;13.73;100.00
61394;BME280;48555;50.952;-0.120;2024-02-14T07:17:38;100804.28;;;13.71;100.00
61394;BME280;48555;50.952;-0.120;2024-02-14T07:20:04;100799.00;;;13.71;100.00
61394;BME280;48555;50.952;-0.120;2024-02-14T07:22:30;100808.41;;;13.73;100.00
61394;BME280;48555;50.952;-0.120;2024-02-14T07:24:55;100816.53;;;13.70;100.00
61394;BME280;48555;50.952;-0.120;2024-02-14T07:27:21;100804.56;;;13.77;100.00
61394;BME280;48555;50.952;-0.120;2024-02-14T07:29:46;100812.56;;;13.76;100.00
61394;BME280;48555;50.952;-0.120;2024-02-14T07:32:12;100822.97;;;13.77;100.00
61394;BME280;48555;50.952;-0.120;2024-02-14T07:34:40;100825.03;;;13.74;100.00
61394;BME280;48555;50.952;-0.120;2024-02-14T07:37:06;100814.53;;;13.74;100.00
61394;BME280;48555;50.952;-0.120;2024-02-14T07:39:32;100810.34;;;13.71;100.00
61394;BME280;48555;50.952;-0.120;2024-02-14T07:41:59;100816.44;;;13.72;100.00
61394;BME280;48555;50.952;-0.120;2024-02-14T07:44:25;100813.91;;;13.70;100.00
61394;BME280;48555;50.952;-0.120;2024-02-14T07:46:50;100816.44;;;13.72;100.00
61394;BME280;48555;50.952;-0.120;2024-02-14T07:49:15;100809.38;;;13.72;100.00
61394;BME280;48555;50.952;-0.120;2024-02-14T07:51:42;100818.91;;;13.73;100.00
61394;BME280;48555;50.952;-0.120;2024-02-14T07:54:07;100814.78;;;13.71;100.00
61394;BME280;48555;50.952;-0.120;2024-02-14T07:56:32;100817.41;;;13.71;100.00
61394;BME280;48555;50.952;-0.120;2024-02-14T07:58:58;100823.75;;;13.68;100.00
61394;BME280;48555;50.952;-0.120;2024-02-14T08:01:25;100823.22;;;13.74;100.00
61394;BME280;48555;50.952;-0.120;2024-02-14T08:03:50;100818.53;;;13.78;100.00
61394;BME280;48555;50.952;-0.120;2024-02-14T08:06:16;100819.88;;;13.72;100.00
61394;BME280;48555;50.952;-0.120;2024-02-14T08:08:41;100830.16;;;13.75;100.00
61394;BME280;48555;50.952;-0.120;2024-02-14T08:11:07;100826.94;;;13.72;100.00
61394;BME280;48555;50.952;-0.120;2024-02-14T08:13:32;100828.50;;;13.74;100.00
61394;BME280;48555;50.952;-0.120;2024-02-14T08:15:57;100836.56;;;13.82;100.00
61394;BME280;48555;50.952;-0.120;2024-02-14T08:18:26;100826.75;;;13.84;100.00
61394;BME280;48555;50.952;-0.120;2024-02-14T08:20:53;100834.94;;;13.91;100.00
61394;BME280;48555;50.952;-0.120;2024-02-14T08:23:18;100823.16;;;13.85;100.00
61394;BME280;48555;50.952;-0.120;2024-02-14T08:25:45;100838.09;;;13.85;100.00
61394;BME280;48555;50.952;-0.120;2024-02-14T08:28:11;100833.03;;;13.93;100.00
61394;BME280;48555;50.952;-0.120;2024-02-14T08:30:36;100835.19;;;13.88;100.00
61394;BME280;48555;50.952;-0.120;2024-02-14T08:33:03;100843.53;;;13.93;100.00
61394;BME280;48555;50.952;-0.120;2024-02-14T08:35:28;100857.41;;;13.95;100.00
61394;BME280;48555;50.952;-0.120;2024-02-14T08:37:54;100855.13;;;13.91;100.00
61394;BME280;48555;50.952;-0.120;2024-02-14T08:40:20;100849.63;;;13.94;100.00
61394;BME280;48555;50.952;-0.120;2024-02-14T08:42:45;100843.41;;;13.95;100.00
61394;BME280;48555;50.952;-0.120;2024-02-14T08:45:10;100852.84;;;13.97;100.00
61394;BME280;48555;50.952;-0.120;2024-02-14T08:47:36;100843.84;;;14.00;100.00
61394;BME280;48555;50.952;-0.120;2024-02-14T08:50:03;100837.06;;;13.97;100.00
61394;BME280;48555;50.952;-0.120;2024-02-14T08:52:29;100830.13;;;13.96;100.00
61394;BME280;48555;50.952;-0.120;2024-02-14T08:54:54;100846.34;;;14.01;100.00
61394;BME280;48555;50.952;-0.120;2024-02-14T08:57:19;100839.00;;;13.95;100.00
61394;BME280;48555;50.952;-0.120;2024-02-14T08:59:46;100850.66;;;14.02;100.00
61394;BME280;48555;50.952;-0.120;2024-02-14T09:02:13;100840.13;;;14.02;100.00
61394;BME280;48555;50.952;-0.120;2024-02-14T09:04:39;100828.78;;;14.02;100.00
61394;BME280;48555;50.952;-0.120;2024-02-14T09:07:06;100838.22;;;14.04;100.00
61394;BME280;48555;50.952;-0.120;2024-02-14T09:09:32;100839.31;;;14.02;100.00
61394;BME280;48555;50.952;-0.120;2024-02-14T09:11:58;100837.50;;;14.02;100.00
61394;BME280;48555;50.952;-0.120;2024-02-14T09:14:27;100843.47;;;14.04;100.00
61394;BME280;48555;50.952;-0.120;2024-02-14T09:16:53;100848.72;;;14.04;100.00
61394;BME280;48555;50.952;-0.120;2024-02-14T09:19:18;100846.09;;;14.04;100.00
61394;BME280;48555;50.952;-0.120;2024-02-14T09:21:43;100833.59;;;13.97;100.00
61394;BME280;48555;50.952;-0.120;2024-02-14T09:24:09;100844.28;;;14.05;100.00
61394;BME280;48555;50.952;-0.120;2024-02-14T09:26:35;100857.75;;;14.12;100.00
61394;BME280;48555;50.952;-0.120;2024-02-14T09:29:00;100854.81;;;14.05;100.00
61394;BME280;48555;50.952;-0.120;2024-02-14T09:31:25;100848.00;;;14.02;100.00
61394;BME280;48555;50.952;-0.120;2024-02-14T09:33:50;100851.09;;;14.07;100.00
61394;BME280;48555;50.952;-0.120;2024-02-14T09:36:16;100841.09;;;14.01;100.00
61394;BME280;48555;50.952;-0.120;2024-02-14T09:38:42;100867.13;;;14.04;100.00
61394;BME280;48555;50.952;-0.120;2024-02-14T09:41:15;100849.44;;;14.06;100.00
61394;BME280;48555;50.952;-0.120;2024-02-14T09:43:44;100859.13;;;14.06;100.00
61394;BME280;48555;50.952;-0.120;2024-02-14T09:46:14;100859.69;;;14.09;100.00
61394;BME280;48555;50.952;-0.120;2024-02-14T09:48:44;100851.25;;;14.06;100.00
61394;BME280;48555;50.952;-0.120;2024-02-14T09:51:10;100844.03;;;14.08;100.00
61394;BME280;48555;50.952;-0.120;2024-02-14T09:53:35;100846.56;;;14.09;100.00
61394;BME280;48555;50.952;-0.120;2024-02-14T09:56:02;100848.22;;;14.11;100.00
61394;BME280;48555;50.952;-0.120;2024-02-14T09:58:27;100855.97;;;14.12;100.00
61394;BME280;48555;50.952;-0.120;2024-02-14T10:00:53;100855.84;;;14.14;100.00
61394;BME280;48555;50.952;-0.120;2024-02-14T10:03:18;100853.09;;;14.15;99.69
61394;BME280;48555;50.952;-0.120;2024-02-14T10:05:44;100852.63;;;14.10;99.98
61394;BME280;48555;50.952;-0.120;2024-02-14T10:08:10;100862.06;;;14.13;99.83
61394;BME280;48555;50.952;-0.120;2024-02-14T10:10:37;100844.88;;;14.08;99.80
61394;BME280;48555;50.952;-0.120;2024-02-14T10:13:06;100855.78;;;14.04;100.00
61394;BME280;48555;50.952;-0.120;2024-02-14T10:15:33;100868.22;;;14.02;100.00
61394;BME280;48555;50.952;-0.120;2024-02-14T10:17:59;100867.13;;;14.04;100.00
61394;BME280;48555;50.952;-0.120;2024-02-14T10:20:25;100883.75;;;14.05;100.00
61394;BME280;48555;50.952;-0.120;2024-02-14T10:22:52;100873.38;;;14.03;100.00
61394;BME280;48555;50.952;-0.120;2024-02-14T10:25:25;100876.94;;;14.02;100.00
61394;BME280;48555;50.952;-0.120;2024-02-14T10:27:50;100883.44;;;13.98;100.00
61394;BME280;48555;50.952;-0.120;2024-02-14T10:30:16;100890.47;;;13.98;100.00
61394;BME280;48555;50.952;-0.120;2024-02-14T10:32:41;100885.66;;;14.03;100.00
61394;BME280;48555;50.952;-0.120;2024-02-14T10:35:13;100892.03;;;14.00;100.00
61394;BME280;48555;50.952;-0.120;2024-02-14T10:37:38;100890.59;;;13.96;100.00
61394;BME280;48555;50.952;-0.120;2024-02-14T10:40:04;100910.28;;;14.02;100.00
61394;BME280;48555;50.952;-0.120;2024-02-14T10:42:31;100914.47;;;14.04;100.00
61394;BME280;48555;50.952;-0.120;2024-02-14T10:44:57;100900.75;;;14.01;100.00
61394;BME280;48555;50.952;-0.120;2024-02-14T10:47:35;100909.91;;;14.06;100.00
61394;BME280;48555;50.952;-0.120;2024-02-14T10:50:03;100908.22;;;14.05;100.00
61394;BME280;48555;50.952;-0.120;2024-02-14T10:52:31;100907.66;;;14.02;100.00
61394;BME280;48555;50.952;-0.120;2024-02-14T10:54:59;100918.06;;;14.03;100.00
61394;BME280;48555;50.952;-0.120;2024-02-14T10:57:27;100908.13;;;14.07;100.00
61394;BME280;48555;50.952;-0.120;2024-02-14T10:59:53;100913.63;;;14.04;100.00
61394;BME280;48555;50.952;-0.120;2024-02-14T11:02:20;100906.31;;;14.07;100.00
61394;BME280;48555;50.952;-0.120;2024-02-14T11:04:46;100921.72;;;14.12;100.00
61394;BME280;48555;50.952;-0.120;2024-02-14T11:07:11;100921.31;;;14.17;100.00
61394;BME280;48555;50.952;-0.120;2024-02-14T11:09:39;100936.00;;;14.19;100.00
61394;BME280;48555;50.952;-0.120;2024-02-14T11:12:08;100937.50;;;14.12;100.00
61394;BME280;48555;50.952;-0.120;2024-02-14T11:14:35;100937.50;;;14.12;100.00
61394;BME280;48555;50.952;-0.120;2024-02-14T11:17:02;100936.00;;;14.19;100.00
61394;BME280;48555;50.952;-0.120;2024-02-14T11:19:32;100937.81;;;14.19;100.00
61394;BME280;48555;50.952;-0.120;2024-02-14T11:22:12;100934.53;;;14.26;100.00
61394;BME280;48555;50.952;-0.120;2024-02-14T11:24:38;100933.53;;;14.18;100.00
61394;BME280;48555;50.952;-0.120;2024-02-14T11:27:09;100931.78;;;14.28;100.00
61394;BME280;48555;50.952;-0.120;2024-02-14T11:29:35;100934.94;;;14.22;100.00
61394;BME280;48555;50.952;-0.120;2024-02-14T11:32:01;100924.84;;;14.27;100.00
61394;BME280;48555;50.952;-0.120;2024-02-14T11:34:31;100940.38;;;14.30;100.00
61394;BME280;48555;50.952;-0.120;2024-02-14T11:36:58;100925.22;;;14.22;100.00
61394;BME280;48555;50.952;-0.120;2024-02-14T11:39:25;100930.13;;;14.27;100.00
61394;BME280;48555;50.952;-0.120;2024-02-14T11:41:50;100930.53;;;14.32;100.00
61394;BME280;48555;50.952;-0.120;2024-02-14T11:44:16;100928.63;;;14.34;100.00
61394;BME280;48555;50.952;-0.120;2024-02-14T11:46:41;100910.94;;;14.36;100.00
61394;BME280;48555;50.952;-0.120;2024-02-14T11:49:07;100925.16;;;14.34;100.00
61394;BME280;48555;50.952;-0.120;2024-02-14T11:51:33;100926.56;;;14.38;100.00
61394;BME280;48555;50.952;-0.120;2024-02-14T11:54:01;100934.03;;;14.32;100.00
61394;BME280;48555;50.952;-0.120;2024-02-14T11:56:39;100940.13;;;14.33;100.00
61394;BME280;48555;50.952;-0.120;2024-02-14T11:59:07;100934.72;;;14.35;99.99
61394;BME280;48555;50.952;-0.120;2024-02-14T12:01:34;100930.81;;;14.29;100.00
61394;BME280;48555;50.952;-0.120;2024-02-14T12:04:09;100941.94;;;14.32;99.98
61394;BME280;48555;50.952;-0.120;2024-02-14T12:06:36;100926.44;;;14.39;99.68
61394;BME280;48555;50.952;-0.120;2024-02-14T12:09:02;100930.53;;;14.32;99.66
61394;BME280;48555;50.952;-0.120;2024-02-14T12:11:32;100929.44;;;14.35;99.71
61394;BME280;48555;50.952;-0.120;2024-02-14T12:14:02;100933.50;;;14.39;99.72
61394;BME280;48555;50.952;-0.120;2024-02-14T12:16:28;100927.38;;;14.38;99.70
61394;BME280;48555;50.952;-0.120;2024-02-14T12:19:13;100929.34;;;14.36;99.95
61394;BME280;48555;50.952;-0.120;2024-02-14T12:21:41;100940.31;;;14.41;99.99
61394;BME280;48555;50.952;-0.120;2024-02-14T12:24:09;100937.53;;;14.43;99.63
61394;BME280;48555;50.952;-0.120;2024-02-14T12:26:36;100928.88;;;14.31;99.84
61394;BME280;48555;50.952;-0.120;2024-02-14T12:29:02;100944.28;;;14.36;99.67
61394;BME280;48555;50.952;-0.120;2024-02-14T12:31:29;100943.31;;;14.37;99.42